sensor_id;sensor_type;location;lat;lon;timestamp;P1;durP1;ratioP1;P2;durP2;ratioP2
20118;SDS011;10220;42.716;23.306;2023-05-29T00:00:10;3.38;;;2.65;;
20118;SDS011;10220;42.716;23.306;2023-05-29T00:02:38;7.00;;;3.58;;
20118;SDS011;10220;42.716;23.306;2023-05-29T00:05:09;3.60;;;2.45;;
20118;SDS011;10220;42.716;23.306;2023-05-29T00:07:38;5.07;;;3.58;;
20118;SDS011;10220;42.716;23.306;2023-05-29T00:10:04;6.75;;;3.33;;
20118;SDS011;10220;42.716;23.306;2023-05-29T00:12:31;5.38;;;2.97;;
20118;SDS011;10220;42.716;23.306;2023-05-29T00:14:57;5.63;;;2.30;;
20118;SDS011;10220;42.716;23.306;2023-05-29T00:17:26;7.43;;;2.40;;
20118;SDS011;10220;42.716;23.306;2023-05-29T00:20:01;2.65;;;2.00;;
20118;SDS011;10220;42.716;23.306;2023-05-29T00:22:31;6.88;;;2.67;;
20118;SDS011;10220;42.716;23.306;2023-05-29T00:24:57;3.38;;;2.53;;
20118;SDS011;10220;42.716;23.306;2023-05-29T00:27:22;4.20;;;2.40;;
20118;SDS011;10220;42.716;23.306;2023-05-29T00:29:48;3.53;;;2.40;;
20118;SDS011;10220;42.716;23.306;2023-05-29T00:32:13;3.42;;;2.30;;
20118;SDS011;10220;42.716;23.306;2023-05-29T00:34:38;3.38;;;2.55;;
20118;SDS011;10220;42.716;23.306;2023-05-29T00:37:04;2.92;;;2.13;;
20118;SDS011;10220;42.716;23.306;2023-05-29T00:39:29;4.22;;;2.17;;
20118;SDS011;10220;42.716;23.306;2023-05-29T00:41:55;2.40;;;2.20;;
20118;SDS011;10220;42.716;23.306;2023-05-29T00:44:21;3.42;;;2.08;;
20118;SDS011;10220;42.716;23.306;2023-05-29T00:46:47;3.15;;;2.40;;
20118;SDS011;10220;42.716;23.306;2023-05-29T00:49:14;4.78;;;2.58;;
20118;SDS011;10220;42.716;23.306;2023-05-29T00:51:41;3.50;;;2.85;;
20118;SDS011;10220;42.716;23.306;2023-05-29T00:54:10;4.78;;;2.58;;
20118;SDS011;10220;42.716;23.306;2023-05-29T00:56:40;4.30;;;2.33;;
20118;SDS011;10220;42.716;23.306;2023-05-29T00:59:10;3.25;;;2.08;;
20118;SDS011;10220;42.716;23.306;2023-05-29T01:01:37;3.72;;;2.42;;
20118;SDS011;10220;42.716;23.306;2023-05-29T01:04:03;4.28;;;3.05;;
20118;SDS011;10220;42.716;23.306;2023-05-29T01:06:31;4.38;;;2.47;;
20118;SDS011;10220;42.716;23.306;2023-05-29T01:08:57;6.07;;;2.70;;
20118;SDS011;10220;42.716;23.306;2023-05-29T01:14:08;1.92;;;1.65;;
20118;SDS011;10220;42.716;23.306;2023-05-29T01:22:13;4.60;;;2.30;;
20118;SDS011;10220;42.716;23.306;2023-05-29T01:24:56;4.80;;;2.90;;
20118;SDS011;10220;42.716;23.306;2023-05-29T01:27:28;3.33;;;2.20;;
20118;SDS011;10220;42.716;23.306;2023-05-29T01:29:55;3.88;;;2.45;;
20118;SDS011;10220;42.716;23.306;2023-05-29T01:32:23;3.28;;;2.40;;
20118;SDS011;10220;42.716;23.306;2023-05-29T01:34:50;4.93;;;2.38;;
20118;SDS011;10220;42.716;23.306;2023-05-29T01:37:16;3.22;;;2.72;;
20118;SDS011;10220;42.716;23.306;2023-05-29T01:39:41;4.57;;;2.90;;
20118;SDS011;10220;42.716;23.306;2023-05-29T01:42:07;5.15;;;2.45;;
20118;SDS011;10220;42.716;23.306;2023-05-29T01:44:34;4.75;;;2.80;;
20118;SDS011;10220;42.716;23.306;2023-05-29T01:47:00;3.35;;;2.33;;
20118;SDS011;10220;42.716;23.306;2023-05-29T01:49:26;7.22;;;2.65;;
20118;SDS011;10220;42.716;23.306;2023-05-29T01:51:54;3.42;;;2.35;;
20118;SDS011;10220;42.716;23.306;2023-05-29T01:54:20;3.33;;;1.95;;
20118;SDS011;10220;42.716;23.306;2023-05-29T01:56:45;3.78;;;2.33;;
20118;SDS011;10220;42.716;23.306;2023-05-29T01:59:12;3.88;;;2.63;;
20118;SDS011;10220;42.716;23.306;2023-05-29T02:01:38;5.35;;;2.83;;
20118;SDS011;10220;42.716;23.306;2023-05-29T02:04:04;3.25;;;2.10;;
20118;SDS011;10220;42.716;23.306;2023-05-29T02:06:30;4.07;;;2.65;;
20118;SDS011;10220;42.716;23.306;2023-05-29T02:08:56;4.35;;;3.08;;
20118;SDS011;10220;42.716;23.306;2023-05-29T02:11:21;7.40;;;3.30;;
20118;SDS011;10220;42.716;23.306;2023-05-29T02:13:46;7.72;;;3.25;;
20118;SDS011;10220;42.716;23.306;2023-05-29T02:16:12;2.47;;;2.22;;
20118;SDS011;10220;42.716;23.306;2023-05-29T02:18:37;7.35;;;3.13;;
20118;SDS011;10220;42.716;23.306;2023-05-29T02:21:03;5.35;;;3.08;;
20118;SDS011;10220;42.716;23.306;2023-05-29T02:23:28;3.95;;;2.53;;
20118;SDS011;10220;42.716;23.306;2023-05-29T02:25:54;3.55;;;2.30;;
20118;SDS011;10220;42.716;23.306;2023-05-29T02:28:20;5.05;;;2.83;;
20118;SDS011;10220;42.716;23.306;2023-05-29T02:30:45;3.78;;;2.30;;
20118;SDS011;10220;42.716;23.306;2023-05-29T02:33:10;9.98;;;2.88;;
20118;SDS011;10220;42.716;23.306;2023-05-29T02:35:36;4.63;;;2.22;;
20118;SDS011;10220;42.716;23.306;2023-05-29T02:38:01;4.47;;;2.88;;
20118;SDS011;10220;42.716;23.306;2023-05-29T02:40:27;6.55;;;2.70;;
20118;SDS011;10220;42.716;23.306;2023-05-29T02:42:53;4.60;;;3.50;;
20118;SDS011;10220;42.716;23.306;2023-05-29T02:45:18;6.18;;;3.30;;
20118;SDS011;10220;42.716;23.306;2023-05-29T02:47:44;6.05;;;2.72;;
20118;SDS011;10220;42.716;23.306;2023-05-29T02:50:09;5.38;;;2.97;;
20118;SDS011;10220;42.716;23.306;2023-05-29T02:52:35;9.55;;;2.78;;
20118;SDS011;10220;42.716;23.306;2023-05-29T02:55:04;8.20;;;4.40;;
20118;SDS011;10220;42.716;23.306;2023-05-29T02:57:31;4.90;;;3.05;;
20118;SDS011;10220;42.716;23.306;2023-05-29T02:59:56;20.08;;;11.55;;
20118;SDS011;10220;42.716;23.306;2023-05-29T03:02:22;26.50;;;13.40;;
20118;SDS011;10220;42.716;23.306;2023-05-29T03:04:48;16.65;;;10.00;;
20118;SDS011;10220;42.716;23.306;2023-05-29T03:07:17;13.85;;;7.03;;
20118;SDS011;10220;42.716;23.306;2023-05-29T03:09:43;73.13;;;36.65;;
20118;SDS011;10220;42.716;23.306;2023-05-29T03:12:08;35.15;;;19.20;;
20118;SDS011;10220;42.716;23.306;2023-05-29T03:14:34;23.27;;;12.77;;
20118;SDS011;10220;42.716;23.306;2023-05-29T03:17:01;10.98;;;6.45;;
20118;SDS011;10220;42.716;23.306;2023-05-29T03:19:29;14.65;;;7.32;;
20118;SDS011;10220;42.716;23.306;2023-05-29T03:21:54;6.82;;;4.25;;
20118;SDS011;10220;42.716;23.306;2023-05-29T03:24:20;10.23;;;4.82;;
20118;SDS011;10220;42.716;23.306;2023-05-29T03:26:45;8.18;;;5.22;;
20118;SDS011;10220;42.716;23.306;2023-05-29T03:29:11;9.70;;;4.82;;
20118;SDS011;10220;42.716;23.306;2023-05-29T03:31:36;9.70;;;5.65;;
20118;SDS011;10220;42.716;23.306;2023-05-29T03:34:02;20.05;;;11.23;;
20118;SDS011;10220;42.716;23.306;2023-05-29T03:36:27;6.30;;;4.30;;
20118;SDS011;10220;42.716;23.306;2023-05-29T03:38:53;48.00;;;22.85;;
20118;SDS011;10220;42.716;23.306;2023-05-29T03:41:19;31.50;;;16.65;;
20118;SDS011;10220;42.716;23.306;2023-05-29T03:43:44;19.73;;;12.07;;
20118;SDS011;10220;42.716;23.306;2023-05-29T03:49:17;3.38;;;3.03;;
20118;SDS011;10220;42.716;23.306;2023-05-29T03:51:42;15.70;;;9.35;;
20118;SDS011;10220;42.716;23.306;2023-05-29T03:54:08;48.67;;;25.58;;
20118;SDS011;10220;42.716;23.306;2023-05-29T03:56:33;42.72;;;21.33;;
20118;SDS011;10220;42.716;23.306;2023-05-29T03:59:00;40.00;;;20.25;;
20118;SDS011;10220;42.716;23.306;2023-05-29T04:01:25;7.57;;;4.40;;
20118;SDS011;10220;42.716;23.306;2023-05-29T04:03:51;31.20;;;14.85;;
20118;SDS011;10220;42.716;23.306;2023-05-29T04:06:16;24.00;;;10.18;;
20118;SDS011;10220;42.716;23.306;2023-05-29T04:08:41;22.45;;;11.88;;
20118;SDS011;10220;42.716;23.306;2023-05-29T04:11:07;20.52;;;9.05;;
20118;SDS011;10220;42.716;23.306;2023-05-29T04:13:32;6.35;;;3.90;;
20118;SDS011;10220;42.716;23.306;2023-05-29T04:15:58;9.50;;;3.33;;
20118;SDS011;10220;42.716;23.306;2023-05-29T04:18:24;18.20;;;10.60;;
20118;SDS011;10220;42.716;23.306;2023-05-29T04:20:50;8.75;;;4.90;;
20118;SDS011;10220;42.716;23.306;2023-05-29T04:23:16;8.60;;;5.55;;
20118;SDS011;10220;42.716;23.306;2023-05-29T04:25:41;24.92;;;12.50;;
20118;SDS011;10220;42.716;23.306;2023-05-29T04:28:08;16.55;;;9.02;;
20118;SDS011;10220;42.716;23.306;2023-05-29T04:30:35;5.32;;;4.13;;
20118;SDS011;10220;42.716;23.306;2023-05-29T04:33:01;10.82;;;5.25;;
20118;SDS011;10220;42.716;23.306;2023-05-29T04:35:28;11.20;;;5.45;;
20118;SDS011;10220;42.716;23.306;2023-05-29T04:37:53;8.65;;;4.18;;
20118;SDS011;10220;42.716;23.306;2023-05-29T04:40:21;4.60;;;3.30;;
20118;SDS011;10220;42.716;23.306;2023-05-29T04:42:47;8.63;;;4.20;;
20118;SDS011;10220;42.716;23.306;2023-05-29T04:45:12;7.22;;;4.18;;
20118;SDS011;10220;42.716;23.306;2023-05-29T04:47:38;8.85;;;3.60;;
20118;SDS011;10220;42.716;23.306;2023-05-29T04:50:09;4.00;;;3.25;;
20118;SDS011;10220;42.716;23.306;2023-05-29T04:52:36;8.90;;;4.38;;
20118;SDS011;10220;42.716;23.306;2023-05-29T04:55:02;7.05;;;3.65;;
20118;SDS011;10220;42.716;23.306;2023-05-29T04:57:28;12.27;;;3.50;;
20118;SDS011;10220;42.716;23.306;2023-05-29T04:59:53;5.45;;;3.75;;
20118;SDS011;10220;42.716;23.306;2023-05-29T05:02:18;6.85;;;4.05;;
20118;SDS011;10220;42.716;23.306;2023-05-29T05:04:44;4.38;;;3.63;;
20118;SDS011;10220;42.716;23.306;2023-05-29T05:07:11;9.90;;;4.43;;
20118;SDS011;10220;42.716;23.306;2023-05-29T05:09:37;6.72;;;3.75;;
20118;SDS011;10220;42.716;23.306;2023-05-29T05:12:02;5.55;;;3.97;;
20118;SDS011;10220;42.716;23.306;2023-05-29T05:14:28;6.00;;;3.38;;
20118;SDS011;10220;42.716;23.306;2023-05-29T05:16:53;4.30;;;2.85;;
20118;SDS011;10220;42.716;23.306;2023-05-29T05:19:19;7.63;;;3.33;;
20118;SDS011;10220;42.716;23.306;2023-05-29T05:21:44;7.47;;;4.90;;
20118;SDS011;10220;42.716;23.306;2023-05-29T05:24:10;12.70;;;4.72;;
20118;SDS011;10220;42.716;23.306;2023-05-29T05:26:35;18.77;;;4.85;;
20118;SDS011;10220;42.716;23.306;2023-05-29T05:29:00;6.57;;;3.85;;
20118;SDS011;10220;42.716;23.306;2023-05-29T05:31:26;9.70;;;2.80;;
20118;SDS011;10220;42.716;23.306;2023-05-29T05:33:52;11.25;;;3.97;;
20118;SDS011;10220;42.716;23.306;2023-05-29T05:36:18;5.38;;;3.10;;
20118;SDS011;10220;42.716;23.306;2023-05-29T05:38:43;5.55;;;3.20;;
20118;SDS011;10220;42.716;23.306;2023-05-29T05:41:09;7.00;;;2.97;;
20118;SDS011;10220;42.716;23.306;2023-05-29T05:43:35;4.30;;;2.60;;
20118;SDS011;10220;42.716;23.306;2023-05-29T05:46:00;4.05;;;2.72;;
20118;SDS011;10220;42.716;23.306;2023-05-29T05:48:26;4.82;;;2.40;;
20118;SDS011;10220;42.716;23.306;2023-05-29T05:50:51;6.22;;;2.95;;
20118;SDS011;10220;42.716;23.306;2023-05-29T05:53:16;4.00;;;2.83;;
20118;SDS011;10220;42.716;23.306;2023-05-29T05:55:42;3.95;;;2.47;;
20118;SDS011;10220;42.716;23.306;2023-05-29T05:58:08;6.90;;;2.97;;
20118;SDS011;10220;42.716;23.306;2023-05-29T06:00:34;5.20;;;2.50;;
20118;SDS011;10220;42.716;23.306;2023-05-29T06:03:00;3.70;;;2.38;;
20118;SDS011;10220;42.716;23.306;2023-05-29T06:05:27;5.38;;;2.65;;
20118;SDS011;10220;42.716;23.306;2023-05-29T06:07:53;5.38;;;2.67;;
20118;SDS011;10220;42.716;23.306;2023-05-29T06:10:18;6.82;;;2.55;;
20118;SDS011;10220;42.716;23.306;2023-05-29T06:12:44;4.28;;;2.63;;
20118;SDS011;10220;42.716;23.306;2023-05-29T06:15:09;4.80;;;2.40;;
20118;SDS011;10220;42.716;23.306;2023-05-29T06:17:35;4.57;;;2.35;;
20118;SDS011;10220;42.716;23.306;2023-05-29T06:20:00;5.60;;;2.97;;
20118;SDS011;10220;42.716;23.306;2023-05-29T06:22:25;4.82;;;2.50;;
20118;SDS011;10220;42.716;23.306;2023-05-29T06:24:51;3.65;;;2.42;;
20118;SDS011;10220;42.716;23.306;2023-05-29T06:27:16;8.27;;;2.72;;
20118;SDS011;10220;42.716;23.306;2023-05-29T06:29:43;2.78;;;2.30;;
20118;SDS011;10220;42.716;23.306;2023-05-29T06:32:08;4.40;;;2.60;;
20118;SDS011;10220;42.716;23.306;2023-05-29T06:40:43;5.90;;;2.92;;
20118;SDS011;10220;42.716;23.306;2023-05-29T06:43:08;5.38;;;2.50;;
20118;SDS011;10220;42.716;23.306;2023-05-29T06:45:37;7.93;;;2.83;;
20118;SDS011;10220;42.716;23.306;2023-05-29T06:48:03;4.38;;;2.42;;
20118;SDS011;10220;42.716;23.306;2023-05-29T06:50:28;2.72;;;1.90;;
20118;SDS011;10220;42.716;23.306;2023-05-29T06:52:53;2.45;;;1.98;;
20118;SDS011;10220;42.716;23.306;2023-05-29T06:55:19;2.75;;;2.20;;
20118;SDS011;10220;42.716;23.306;2023-05-29T06:57:45;3.25;;;1.90;;
20118;SDS011;10220;42.716;23.306;2023-05-29T07:00:11;4.50;;;2.15;;
20118;SDS011;10220;42.716;23.306;2023-05-29T07:02:37;3.58;;;2.13;;
20118;SDS011;10220;42.716;23.306;2023-05-29T07:05:02;5.18;;;2.05;;
20118;SDS011;10220;42.716;23.306;2023-05-29T07:07:28;3.38;;;2.30;;
20118;SDS011;10220;42.716;23.306;2023-05-29T07:09:54;6.07;;;2.72;;
20118;SDS011;10220;42.716;23.306;2023-05-29T07:12:21;2.50;;;1.63;;
20118;SDS011;10220;42.716;23.306;2023-05-29T07:14:47;6.32;;;3.88;;
20118;SDS011;10220;42.716;23.306;2023-05-29T07:17:13;8.68;;;4.63;;
20118;SDS011;10220;42.716;23.306;2023-05-29T07:19:39;1.40;;;1.30;;
20118;SDS011;10220;42.716;23.306;2023-05-29T07:22:05;2.30;;;1.42;;
20118;SDS011;10220;42.716;23.306;2023-05-29T07:24:30;8.55;;;4.50;;
20118;SDS011;10220;42.716;23.306;2023-05-29T07:26:56;8.15;;;4.07;;
20118;SDS011;10220;42.716;23.306;2023-05-29T07:29:21;6.20;;;4.75;;
20118;SDS011;10220;42.716;23.306;2023-05-29T07:31:48;3.15;;;1.73;;
20118;SDS011;10220;42.716;23.306;2023-05-29T07:34:17;16.45;;;9.50;;
20118;SDS011;10220;42.716;23.306;2023-05-29T07:36:59;2.13;;;1.38;;
20118;SDS011;10220;42.716;23.306;2023-05-29T07:39:26;1.58;;;1.10;;
20118;SDS011;10220;42.716;23.306;2023-05-29T07:41:52;3.75;;;1.20;;
20118;SDS011;10220;42.716;23.306;2023-05-29T07:44:18;5.00;;;1.63;;
20118;SDS011;10220;42.716;23.306;2023-05-29T07:46:43;3.45;;;2.78;;
20118;SDS011;10220;42.716;23.306;2023-05-29T07:49:09;4.68;;;3.00;;
20118;SDS011;10220;42.716;23.306;2023-05-29T07:51:34;1.33;;;1.00;;
20118;SDS011;10220;42.716;23.306;2023-05-29T07:53:59;2.38;;;1.55;;
20118;SDS011;10220;42.716;23.306;2023-05-29T07:56:25;3.17;;;1.50;;
20118;SDS011;10220;42.716;23.306;2023-05-29T07:58:50;2.42;;;1.08;;
20118;SDS011;10220;42.716;23.306;2023-05-29T08:01:18;0.88;;;0.88;;
20118;SDS011;10220;42.716;23.306;2023-05-29T08:03:44;2.40;;;1.40;;
20118;SDS011;10220;42.716;23.306;2023-05-29T08:06:10;1.45;;;1.17;;
20118;SDS011;10220;42.716;23.306;2023-05-29T08:08:39;2.83;;;2.03;;
20118;SDS011;10220;42.716;23.306;2023-05-29T08:11:04;3.00;;;2.10;;
20118;SDS011;10220;42.716;23.306;2023-05-29T08:13:30;2.05;;;1.40;;
20118;SDS011;10220;42.716;23.306;2023-05-29T08:15:55;4.72;;;2.90;;
20118;SDS011;10220;42.716;23.306;2023-05-29T08:18:25;2.53;;;1.70;;
20118;SDS011;10220;42.716;23.306;2023-05-29T08:31:17;2.50;;;1.98;;
20118;SDS011;10220;42.716;23.306;2023-05-29T08:34:00;2.92;;;1.33;;
20118;SDS011;10220;42.716;23.306;2023-05-29T08:36:25;3.17;;;1.15;;
20118;SDS011;10220;42.716;23.306;2023-05-29T08:38:51;1.63;;;1.40;;
20118;SDS011;10220;42.716;23.306;2023-05-29T08:44:24;2.92;;;1.48;;
20118;SDS011;10220;42.716;23.306;2023-05-29T08:46:54;5.75;;;3.25;;
20118;SDS011;10220;42.716;23.306;2023-05-29T08:49:21;3.95;;;1.45;;
20118;SDS011;10220;42.716;23.306;2023-05-29T08:51:47;3.33;;;2.58;;
20118;SDS011;10220;42.716;23.306;2023-05-29T08:54:19;1.80;;;1.45;;
20118;SDS011;10220;42.716;23.306;2023-05-29T08:56:45;2.30;;;2.03;;
20118;SDS011;10220;42.716;23.306;2023-05-29T08:59:29;1.60;;;1.33;;
20118;SDS011;10220;42.716;23.306;2023-05-29T09:01:55;1.42;;;1.30;;
20118;SDS011;10220;42.716;23.306;2023-05-29T09:04:25;1.83;;;1.20;;
20118;SDS011;10220;42.716;23.306;2023-05-29T09:06:50;3.28;;;2.33;;
20118;SDS011;10220;42.716;23.306;2023-05-29T09:09:17;2.88;;;1.55;;
20118;SDS011;10220;42.716;23.306;2023-05-29T09:11:43;3.38;;;2.95;;
20118;SDS011;10220;42.716;23.306;2023-05-29T09:14:55;1.95;;;1.70;;
20118;SDS011;10220;42.716;23.306;2023-05-29T09:16:59;1.20;;;1.10;;
20118;SDS011;10220;42.716;23.306;2023-05-29T09:19:25;2.30;;;1.73;;
20118;SDS011;10220;42.716;23.306;2023-05-29T09:21:51;3.28;;;1.20;;
20118;SDS011;10220;42.716;23.306;2023-05-29T09:24:16;3.33;;;1.60;;
20118;SDS011;10220;42.716;23.306;2023-05-29T09:26:51;3.10;;;1.88;;
20118;SDS011;10220;42.716;23.306;2023-05-29T09:29:16;2.83;;;1.52;;
20118;SDS011;10220;42.716;23.306;2023-05-29T09:31:48;1.65;;;1.55;;
20118;SDS011;10220;42.716;23.306;2023-05-29T09:34:16;5.15;;;2.30;;
20118;SDS011;10220;42.716;23.306;2023-05-29T09:36:41;8.45;;;1.63;;
20118;SDS011;10220;42.716;23.306;2023-05-29T09:39:07;1.48;;;1.35;;
20118;SDS011;10220;42.716;23.306;2023-05-29T09:41:43;2.70;;;1.92;;
20118;SDS011;10220;42.716;23.306;2023-05-29T09:44:12;7.55;;;4.47;;
20118;SDS011;10220;42.716;23.306;2023-05-29T09:46:39;2.03;;;1.60;;
20118;SDS011;10220;42.716;23.306;2023-05-29T09:49:12;2.88;;;2.63;;
20118;SDS011;10220;42.716;23.306;2023-05-29T09:51:38;4.07;;;3.03;;
20118;SDS011;10220;42.716;23.306;2023-05-29T09:54:16;1.45;;;1.20;;
20118;SDS011;10220;42.716;23.306;2023-05-29T09:59:39;2.38;;;2.17;;
20118;SDS011;10220;42.716;23.306;2023-05-29T10:02:10;2.17;;;1.50;;
20118;SDS011;10220;42.716;23.306;2023-05-29T10:04:37;1.73;;;1.40;;
20118;SDS011;10220;42.716;23.306;2023-05-29T10:07:08;2.83;;;1.95;;
20118;SDS011;10220;42.716;23.306;2023-05-29T10:09:41;1.50;;;1.40;;
20118;SDS011;10220;42.716;23.306;2023-05-29T10:12:09;2.50;;;1.92;;
20118;SDS011;10220;42.716;23.306;2023-05-29T10:14:36;3.28;;;2.55;;
20118;SDS011;10220;42.716;23.306;2023-05-29T10:17:05;7.68;;;1.27;;
20118;SDS011;10220;42.716;23.306;2023-05-29T10:19:33;2.25;;;1.42;;
20118;SDS011;10220;42.716;23.306;2023-05-29T10:22:01;6.15;;;2.00;;
20118;SDS011;10220;42.716;23.306;2023-05-29T10:24:29;1.55;;;1.45;;
20118;SDS011;10220;42.716;23.306;2023-05-29T10:26:56;3.40;;;1.45;;
20118;SDS011;10220;42.716;23.306;2023-05-29T10:29:39;2.20;;;0.90;;
20118;SDS011;10220;42.716;23.306;2023-05-29T10:35:20;2.38;;;1.92;;
20118;SDS011;10220;42.716;23.306;2023-05-29T10:37:54;1.38;;;1.27;;
20118;SDS011;10220;42.716;23.306;2023-05-29T10:40:28;1.85;;;1.45;;
20118;SDS011;10220;42.716;23.306;2023-05-29T10:42:59;2.30;;;1.85;;
20118;SDS011;10220;42.716;23.306;2023-05-29T10:48:42;2.53;;;1.48;;
20118;SDS011;10220;42.716;23.306;2023-05-29T10:50:46;2.08;;;1.80;;
20118;SDS011;10220;42.716;23.306;2023-05-29T10:53:16;1.05;;;0.95;;
20118;SDS011;10220;42.716;23.306;2023-05-29T10:55:43;4.88;;;2.35;;
20118;SDS011;10220;42.716;23.306;2023-05-29T10:58:14;2.20;;;1.92;;
20118;SDS011;10220;42.716;23.306;2023-05-29T11:00:46;1.38;;;1.27;;
20118;SDS011;10220;42.716;23.306;2023-05-29T11:03:21;2.17;;;1.50;;
20118;SDS011;10220;42.716;23.306;2023-05-29T11:13:52;2.20;;;0.82;;
20118;SDS011;10220;42.716;23.306;2023-05-29T11:16:35;1.13;;;1.02;;
20118;SDS011;10220;42.716;23.306;2023-05-29T11:19:06;1.10;;;0.98;;
20118;SDS011;10220;42.716;23.306;2023-05-29T11:24:26;1.67;;;1.20;;
20118;SDS011;10220;42.716;23.306;2023-05-29T11:26:52;1.23;;;1.13;;
20118;SDS011;10220;42.716;23.306;2023-05-29T11:29:23;1.23;;;0.98;;
20118;SDS011;10220;42.716;23.306;2023-05-29T11:32:02;1.45;;;1.30;;
20118;SDS011;10220;42.716;23.306;2023-05-29T11:34:35;1.15;;;1.05;;
20118;SDS011;10220;42.716;23.306;2023-05-29T11:37:04;3.25;;;1.40;;
20118;SDS011;10220;42.716;23.306;2023-05-29T11:39:29;1.33;;;1.23;;
20118;SDS011;10220;42.716;23.306;2023-05-29T11:41:56;2.13;;;1.25;;
20118;SDS011;10220;42.716;23.306;2023-05-29T11:44:25;1.67;;;1.20;;
20118;SDS011;10220;42.716;23.306;2023-05-29T11:47:06;1.30;;;1.20;;
20118;SDS011;10220;42.716;23.306;2023-05-29T11:49:32;2.70;;;1.95;;
20118;SDS011;10220;42.716;23.306;2023-05-29T11:52:09;3.75;;;1.70;;
20118;SDS011;10220;42.716;23.306;2023-05-29T11:54:35;2.65;;;1.63;;
20118;SDS011;10220;42.716;23.306;2023-05-29T11:57:02;3.55;;;1.50;;
20118;SDS011;10220;42.716;23.306;2023-05-29T11:59:30;2.33;;;1.55;;
20118;SDS011;10220;42.716;23.306;2023-05-29T12:02:03;2.70;;;1.85;;
20118;SDS011;10220;42.716;23.306;2023-05-29T12:04:59;2.17;;;1.50;;
20118;SDS011;10220;42.716;23.306;2023-05-29T12:07:26;3.38;;;1.10;;
20118;SDS011;10220;42.716;23.306;2023-05-29T12:09:51;3.17;;;1.73;;
20118;SDS011;10220;42.716;23.306;2023-05-29T12:12:18;1.85;;;1.00;;
20118;SDS011;10220;42.716;23.306;2023-05-29T12:14:43;1.50;;;1.40;;
20118;SDS011;10220;42.716;23.306;2023-05-29T12:17:08;1.25;;;1.08;;
20118;SDS011;10220;42.716;23.306;2023-05-29T12:19:34;3.47;;;2.00;;
20118;SDS011;10220;42.716;23.306;2023-05-29T12:21:59;3.40;;;1.45;;
20118;SDS011;10220;42.716;23.306;2023-05-29T12:24:25;3.95;;;1.17;;
20118;SDS011;10220;42.716;23.306;2023-05-29T12:26:50;2.60;;;1.35;;
20118;SDS011;10220;42.716;23.306;2023-05-29T12:29:16;0.95;;;0.90;;
20118;SDS011;10220;42.716;23.306;2023-05-29T12:31:41;3.83;;;1.75;;
20118;SDS011;10220;42.716;23.306;2023-05-29T12:34:12;3.67;;;1.98;;
20118;SDS011;10220;42.716;23.306;2023-05-29T12:36:40;2.05;;;1.50;;
20118;SDS011;10220;42.716;23.306;2023-05-29T12:39:06;2.92;;;1.67;;
20118;SDS011;10220;42.716;23.306;2023-05-29T12:41:35;3.60;;;1.30;;
20118;SDS011;10220;42.716;23.306;2023-05-29T12:44:02;2.65;;;1.30;;
20118;SDS011;10220;42.716;23.306;2023-05-29T12:46:39;1.85;;;1.65;;
20118;SDS011;10220;42.716;23.306;2023-05-29T12:49:11;1.58;;;1.33;;
20118;SDS011;10220;42.716;23.306;2023-05-29T12:51:42;2.42;;;1.65;;
20118;SDS011;10220;42.716;23.306;2023-05-29T12:54:15;1.60;;;1.48;;
20118;SDS011;10220;42.716;23.306;2023-05-29T12:56:41;2.47;;;1.38;;
20118;SDS011;10220;42.716;23.306;2023-05-29T12:59:07;3.80;;;1.52;;
20118;SDS011;10220;42.716;23.306;2023-05-29T13:01:34;2.97;;;1.65;;
20118;SDS011;10220;42.716;23.306;2023-05-29T13:04:02;2.92;;;1.60;;
20118;SDS011;10220;42.716;23.306;2023-05-29T13:06:28;4.13;;;2.05;;
20118;SDS011;10220;42.716;23.306;2023-05-29T13:08:54;2.75;;;1.50;;
20118;SDS011;10220;42.716;23.306;2023-05-29T13:11:22;3.08;;;1.73;;
20118;SDS011;10220;42.716;23.306;2023-05-29T13:13:47;2.13;;;1.40;;
20118;SDS011;10220;42.716;23.306;2023-05-29T13:16:12;3.75;;;1.92;;
20118;SDS011;10220;42.716;23.306;2023-05-29T13:18:38;2.65;;;1.58;;
20118;SDS011;10220;42.716;23.306;2023-05-29T13:21:06;2.03;;;1.75;;
20118;SDS011;10220;42.716;23.306;2023-05-29T13:24:09;1.83;;;1.60;;
20118;SDS011;10220;42.716;23.306;2023-05-29T13:26:35;1.27;;;1.17;;
20118;SDS011;10220;42.716;23.306;2023-05-29T13:29:00;3.42;;;1.35;;
20118;SDS011;10220;42.716;23.306;2023-05-29T13:31:25;1.20;;;0.65;;
20118;SDS011;10220;42.716;23.306;2023-05-29T13:33:51;1.35;;;0.70;;
20118;SDS011;10220;42.716;23.306;2023-05-29T13:36:16;0.68;;;0.60;;
20118;SDS011;10220;42.716;23.306;2023-05-29T13:38:42;0.75;;;0.73;;
20118;SDS011;10220;42.716;23.306;2023-05-29T13:41:09;1.15;;;0.43;;
20118;SDS011;10220;42.716;23.306;2023-05-29T13:43:34;0.90;;;0.60;;
20118;SDS011;10220;42.716;23.306;2023-05-29T13:46:00;0.65;;;0.57;;
20118;SDS011;10220;42.716;23.306;2023-05-29T13:48:25;0.80;;;0.60;;
20118;SDS011;10220;42.716;23.306;2023-05-29T13:50:51;0.47;;;0.47;;
20118;SDS011;10220;42.716;23.306;2023-05-29T13:53:16;1.20;;;0.90;;
20118;SDS011;10220;42.716;23.306;2023-05-29T13:58:38;1.08;;;0.68;;
20118;SDS011;10220;42.716;23.306;2023-05-29T14:04:15;1.08;;;0.60;;
20118;SDS011;10220;42.716;23.306;2023-05-29T14:06:41;0.82;;;0.52;;
20118;SDS011;10220;42.716;23.306;2023-05-29T14:09:06;0.70;;;0.40;;
20118;SDS011;10220;42.716;23.306;2023-05-29T14:11:35;1.42;;;0.70;;
20118;SDS011;10220;42.716;23.306;2023-05-29T14:14:03;0.70;;;0.70;;
20118;SDS011;10220;42.716;23.306;2023-05-29T14:16:29;0.60;;;0.60;;
20118;SDS011;10220;42.716;23.306;2023-05-29T14:18:55;0.70;;;0.70;;
20118;SDS011;10220;42.716;23.306;2023-05-29T14:21:21;0.50;;;0.43;;
20118;SDS011;10220;42.716;23.306;2023-05-29T14:23:46;0.90;;;0.47;;
20118;SDS011;10220;42.716;23.306;2023-05-29T14:29:33;0.88;;;0.57;;
20118;SDS011;10220;42.716;23.306;2023-05-29T14:34:52;0.80;;;0.50;;
20118;SDS011;10220;42.716;23.306;2023-05-29T14:37:17;0.88;;;0.65;;
20118;SDS011;10220;42.716;23.306;2023-05-29T14:39:43;1.00;;;0.63;;
20118;SDS011;10220;42.716;23.306;2023-05-29T14:42:08;0.68;;;0.57;;
20118;SDS011;10220;42.716;23.306;2023-05-29T14:44:44;0.70;;;0.70;;
20118;SDS011;10220;42.716;23.306;2023-05-29T14:47:10;1.10;;;0.70;;
20118;SDS011;10220;42.716;23.306;2023-05-29T14:49:35;0.57;;;0.57;;
20118;SDS011;10220;42.716;23.306;2023-05-29T14:52:01;0.68;;;0.60;;
20118;SDS011;10220;42.716;23.306;2023-05-29T14:54:29;4.97;;;2.35;;
20118;SDS011;10220;42.716;23.306;2023-05-29T14:56:55;2.47;;;0.75;;
20118;SDS011;10220;42.716;23.306;2023-05-29T14:59:20;1.58;;;1.10;;
20118;SDS011;10220;42.716;23.306;2023-05-29T15:01:46;1.58;;;1.15;;
20118;SDS011;10220;42.716;23.306;2023-05-29T15:04:11;1.77;;;1.42;;
20118;SDS011;10220;42.716;23.306;2023-05-29T15:06:37;1.42;;;0.93;;
20118;SDS011;10220;42.716;23.306;2023-05-29T15:09:03;0.85;;;0.55;;
20118;SDS011;10220;42.716;23.306;2023-05-29T15:11:28;1.10;;;1.00;;
20118;SDS011;10220;42.716;23.306;2023-05-29T15:13:55;2.00;;;1.00;;
20118;SDS011;10220;42.716;23.306;2023-05-29T15:16:21;2.08;;;1.10;;
20118;SDS011;10220;42.716;23.306;2023-05-29T15:18:46;1.20;;;1.05;;
20118;SDS011;10220;42.716;23.306;2023-05-29T15:21:12;1.35;;;1.15;;
20118;SDS011;10220;42.716;23.306;2023-05-29T15:23:37;1.55;;;1.30;;
20118;SDS011;10220;42.716;23.306;2023-05-29T15:26:04;1.40;;;1.30;;
20118;SDS011;10220;42.716;23.306;2023-05-29T15:28:30;1.70;;;1.33;;
20118;SDS011;10220;42.716;23.306;2023-05-29T15:30:56;2.67;;;1.63;;
20118;SDS011;10220;42.716;23.306;2023-05-29T15:33:22;2.08;;;1.23;;
20118;SDS011;10220;42.716;23.306;2023-05-29T15:35:47;2.10;;;1.73;;